金門航空站 - ATIS

METAR RCBS 181200Z 24010KT 9999 SCT008 SCT120 28/26 Q1004 NOSIG RMK 23010KT/R06 A2967(Z)=

站台狀態:Online
最後更新:2019-08-18 23:45:02